createdAt,value
2023-01-25T00:01:45.322Z,3.12
2023-01-25T00:04:31.997Z,2.57
2023-01-25T00:07:18.310Z,3.14
2023-01-25T00:10:05.344Z,3.32
2023-01-25T00:12:52.027Z,3.44
2023-01-25T00:15:40.067Z,3.41
2023-01-25T00:18:26.722Z,3.30
2023-01-25T00:21:14.098Z,3.29
2023-01-25T00:24:00.574Z,3.32
2023-01-25T00:26:46.968Z,3.18
2023-01-25T00:29:33.484Z,3.15
2023-01-25T00:32:55.231Z,2.96
2023-01-25T00:35:41.677Z,3.38
2023-01-25T00:38:31.181Z,3.04
2023-01-25T00:41:17.615Z,3.39
2023-01-25T00:44:04.055Z,3.47
2023-01-25T00:46:50.446Z,3.35
2023-01-25T00:49:39.822Z,3.32
2023-01-25T00:52:28.592Z,3.92
2023-01-25T00:55:15.352Z,4.08
2023-01-25T00:58:02.187Z,4.22
2023-01-25T01:00:48.454Z,4.28
2023-01-25T01:03:34.728Z,4.77
2023-01-25T01:06:22.716Z,4.83
2023-01-25T01:09:14.362Z,5.29
2023-01-25T01:12:00.975Z,5.13
2023-01-25T01:14:47.451Z,4.76
2023-01-25T01:17:34.069Z,5.18
2023-01-25T01:20:20.606Z,5.15
2023-01-25T01:23:08.418Z,5.08
2023-01-25T01:25:54.848Z,4.32
2023-01-25T01:28:41.869Z,3.87
2023-01-25T01:31:29.236Z,3.94
2023-01-25T01:34:45.436Z,3.48
2023-01-25T01:37:32.278Z,3.49
2023-01-25T01:40:20.260Z,3.32
2023-01-25T01:43:17.076Z,2.33
2023-01-25T01:46:05.333Z,3.14
2023-01-25T01:48:58.799Z,3.29
2023-01-25T01:51:48.967Z,3.43
2023-01-25T01:54:45.225Z,3.21
2023-01-25T01:57:38.088Z,2.32
2023-01-25T02:00:27.918Z,2.91
2023-01-25T02:03:16.956Z,3.02
2023-01-25T02:06:10.983Z,3.55
2023-01-25T02:08:57.907Z,3.94
2023-01-25T02:11:45.469Z,3.95
2023-01-25T02:14:34.548Z,3.49
2023-01-25T02:17:27.258Z,3.81
2023-01-25T02:20:27.629Z,3.75
2023-01-25T02:23:24.791Z,3.50
2023-01-25T02:26:12.517Z,3.33
2023-01-25T02:29:02.537Z,3.46
2023-01-25T02:31:52.483Z,2.90
2023-01-25T02:34:39.258Z,3.29
2023-01-25T02:37:27.238Z,3.44
2023-01-25T02:40:14.133Z,3.71
2023-01-25T02:43:03.072Z,3.79
2023-01-25T02:45:57.282Z,4.02
2023-01-25T02:48:43.969Z,4.22
2023-01-25T02:51:33.547Z,3.73
2023-01-25T02:54:21.822Z,3.91
2023-01-25T02:57:08.528Z,4.23
2023-01-25T03:00:05.729Z,3.08
2023-01-25T03:02:52.492Z,2.88
2023-01-25T03:05:39.347Z,2.82
2023-01-25T03:08:26.032Z,2.88
2023-01-25T03:11:13.894Z,3.10
2023-01-25T03:14:01.134Z,3.55
2023-01-25T03:16:50.533Z,3.43
2023-01-25T03:19:39.969Z,3.40
2023-01-25T03:22:27.213Z,3.44
2023-01-25T03:25:14.103Z,3.44
2023-01-25T03:28:10.845Z,2.99
2023-01-25T03:30:59.090Z,2.70
2023-01-25T03:33:47.585Z,3.02
2023-01-25T03:36:34.286Z,3.43
2023-01-25T03:39:20.911Z,3.52
2023-01-25T03:42:08.252Z,3.78
2023-01-25T03:44:55.252Z,3.38
2023-01-25T03:47:42.107Z,4.33
2023-01-25T03:50:30.728Z,5.01
2023-01-25T03:53:27.395Z,5.03
2023-01-25T03:56:19.810Z,5.38
2023-01-25T03:59:15.344Z,5.18
2023-01-25T04:02:03.193Z,4.02
2023-01-25T04:04:49.873Z,3.35
2023-01-25T04:07:40.323Z,2.71
2023-01-25T04:10:28.409Z,3.19
2023-01-25T04:13:15.260Z,2.90
2023-01-25T04:16:02.332Z,3.38
2023-01-25T04:19:09.012Z,3.54
2023-01-25T04:21:55.585Z,2.86
2023-01-25T04:24:46.270Z,2.55
2023-01-25T04:27:33.032Z,2.81
2023-01-25T04:30:27.114Z,3.28
2023-01-25T04:33:14.472Z,3.69
2023-01-25T04:36:02.248Z,4.13
2023-01-25T04:38:49.325Z,4.65
2023-01-25T04:41:37.255Z,4.96
2023-01-25T04:44:25.059Z,3.88
2023-01-25T04:47:12.357Z,5.19
2023-01-25T04:49:58.967Z,5.79
2023-01-25T04:52:49.378Z,4.69
2023-01-25T04:55:36.256Z,4.41
2023-01-25T04:58:24.467Z,4.64
2023-01-25T05:01:12.337Z,4.66
2023-01-25T05:03:59.037Z,6.21
2023-01-25T05:06:58.651Z,6.78
2023-01-25T05:09:46.534Z,5.35
2023-01-25T05:12:33.267Z,6.27
2023-01-25T05:15:23.899Z,6.42
2023-01-25T05:18:11.051Z,6.38
2023-01-25T05:20:57.554Z,5.62
2023-01-25T05:23:45.825Z,4.73
2023-01-25T05:26:49.990Z,4.33
2023-01-25T05:29:39.761Z,3.72
2023-01-25T05:32:29.785Z,2.91
2023-01-25T05:35:17.062Z,2.79
2023-01-25T05:38:03.985Z,2.62
2023-01-25T05:40:50.957Z,2.86
2023-01-25T05:43:37.954Z,3.36
2023-01-25T05:46:28.009Z,2.86
2023-01-25T05:49:17.539Z,2.77
2023-01-25T05:52:04.994Z,3.14
2023-01-25T05:54:52.297Z,3.13
2023-01-25T05:57:38.893Z,3.76
2023-01-25T06:00:25.257Z,3.74
2023-01-25T06:03:11.882Z,4.21
2023-01-25T06:06:02.765Z,4.23
2023-01-25T06:08:51.205Z,4.57
2023-01-25T06:11:37.690Z,3.67
2023-01-25T06:14:24.172Z,2.52
2023-01-25T06:17:11.696Z,3.65
2023-01-25T06:20:31.686Z,4.32
2023-01-25T06:23:27.162Z,4.32
2023-01-25T06:26:15.881Z,4.63
2023-01-25T06:29:02.337Z,5.86
2023-01-25T06:31:49.015Z,5.54
2023-01-25T06:34:35.667Z,4.16
2023-01-25T06:37:23.060Z,5.25
2023-01-25T06:40:12.606Z,5.47
2023-01-25T06:43:07.414Z,5.08
2023-01-25T06:45:54.481Z,4.69
2023-01-25T06:48:42.857Z,4.04
2023-01-25T06:51:30.266Z,2.91
2023-01-25T06:54:17.292Z,2.25
2023-01-25T06:57:05.920Z,1.97
2023-01-25T06:59:52.595Z,2.29
2023-01-25T07:02:39.181Z,2.62
2023-01-25T07:05:25.889Z,1.77
2023-01-25T07:08:12.578Z,0.62
2023-01-25T07:11:00.738Z,0.83
2023-01-25T07:13:49.263Z,1.72
2023-01-25T07:16:38.550Z,1.85
2023-01-25T07:19:25.385Z,2.39
2023-01-25T07:22:12.222Z,2.68
2023-01-25T07:24:59.074Z,2.99
2023-01-25T07:27:45.638Z,3.11
2023-01-25T07:30:33.581Z,3.54
2023-01-25T07:33:20.141Z,4.96
2023-01-25T07:36:08.904Z,7.14
2023-01-25T07:38:57.043Z,8.60
2023-01-25T07:41:43.901Z,6.68
2023-01-25T07:44:37.548Z,3.80
2023-01-25T07:47:32.998Z,4.41
2023-01-25T07:50:20.356Z,4.48
2023-01-25T07:53:07.254Z,5.59
2023-01-25T07:55:53.951Z,5.83
2023-01-25T07:58:40.982Z,5.29
2023-01-25T08:01:29.465Z,5.40
2023-01-25T08:04:17.434Z,3.60
2023-01-25T08:07:03.831Z,5.45
2023-01-25T08:09:50.638Z,6.16
2023-01-25T08:12:38.066Z,6.95
2023-01-25T08:15:24.479Z,6.89
2023-01-25T08:18:12.179Z,6.57
2023-01-25T08:21:00.988Z,6.73
2023-01-25T08:23:48.093Z,6.72
2023-01-25T08:26:35.657Z,6.08
2023-01-25T08:29:22.451Z,4.07
2023-01-25T08:32:09.070Z,2.56
2023-01-25T08:34:55.760Z,4.63
2023-01-25T08:37:43.947Z,4.82
2023-01-25T08:40:31.281Z,5.09
2023-01-25T08:43:18.201Z,4.79
2023-01-25T08:46:05.813Z,3.54
2023-01-25T08:48:55.899Z,5.01
2023-01-25T08:51:43.560Z,4.88
2023-01-25T08:54:32.183Z,4.50
2023-01-25T08:57:19.268Z,4.90
2023-01-25T09:00:07.730Z,5.15
2023-01-25T09:02:54.428Z,4.47
2023-01-25T09:05:41.106Z,5.32
2023-01-25T09:08:27.714Z,5.24
2023-01-25T09:11:18.161Z,4.84
2023-01-25T09:14:05.344Z,4.98
2023-01-25T09:16:52.224Z,5.19
2023-01-25T09:19:38.723Z,5.48
2023-01-25T09:22:25.560Z,4.92
2023-01-25T09:25:12.630Z,5.41
2023-01-25T09:28:01.005Z,5.30
2023-01-25T09:31:10.925Z,5.08
2023-01-25T09:34:22.616Z,6.38
2023-01-25T09:37:09.427Z,5.42
2023-01-25T09:39:56.362Z,4.24
2023-01-25T09:43:05.265Z,4.64
2023-01-25T09:45:52.314Z,4.76
2023-01-25T09:48:45.401Z,5.73
2023-01-25T09:51:51.173Z,5.04
2023-01-25T09:54:47.090Z,5.09
2023-01-25T09:57:38.027Z,4.80
2023-01-25T10:00:33.010Z,4.76
2023-01-25T10:03:24.588Z,3.90
2023-01-25T10:06:15.136Z,3.11
2023-01-25T10:09:08.715Z,2.94
2023-01-25T10:11:55.751Z,3.71
2023-01-25T10:14:42.547Z,3.11
2023-01-25T10:17:37.107Z,4.07
2023-01-25T10:20:32.968Z,4.93
2023-01-25T10:23:36.018Z,5.68
2023-01-25T10:26:26.174Z,6.37
2023-01-25T10:29:16.064Z,6.46
2023-01-25T10:32:13.922Z,5.96
2023-01-25T10:35:20.060Z,5.62
2023-01-25T10:38:21.203Z,4.83
2023-01-25T10:41:13.436Z,5.19
2023-01-25T10:44:14.365Z,4.52
2023-01-25T10:47:07.314Z,4.57
2023-01-25T10:49:55.699Z,4.88
2023-01-25T10:52:58.815Z,4.18
2023-01-25T10:55:59.239Z,4.12
2023-01-25T10:58:48.038Z,3.29
2023-01-25T11:01:37.391Z,5.03
2023-01-25T11:04:39.165Z,4.33
2023-01-25T11:07:30.172Z,2.83
2023-01-25T11:10:30.425Z,3.63
2023-01-25T11:13:22.963Z,4.20
2023-01-25T11:16:43.593Z,3.67
2023-01-25T11:19:34.519Z,3.67
2023-01-25T11:22:24.047Z,3.06
2023-01-25T11:25:30.914Z,3.83
2023-01-25T11:28:19.859Z,4.79
2023-01-25T11:31:12.362Z,5.21
2023-01-25T11:33:58.855Z,4.97
2023-01-25T11:37:29.173Z,4.98
2023-01-25T11:40:23.469Z,4.75
2023-01-25T11:43:25.010Z,4.33
2023-01-25T11:46:25.073Z,5.09
2023-01-25T11:49:34.358Z,4.32
2023-01-25T11:52:36.225Z,4.35
2023-01-25T11:55:27.802Z,4.92
2023-01-25T11:58:33.765Z,5.73
2023-01-25T12:01:29.081Z,4.59
2023-01-25T12:04:37.935Z,5.45
2023-01-25T12:07:35.703Z,4.68
2023-01-25T12:10:35.338Z,5.89
2023-01-25T12:13:31.284Z,4.96
2023-01-25T12:16:41.926Z,3.69
2023-01-25T12:19:47.471Z,3.98
2023-01-25T12:22:54.940Z,4.07
2023-01-25T12:25:56.895Z,4.81
2023-01-25T12:28:51.523Z,4.84
2023-01-25T12:31:44.956Z,4.14
2023-01-25T12:34:36.790Z,4.83
2023-01-25T12:37:30.825Z,4.46
2023-01-25T12:40:21.482Z,3.42
2023-01-25T12:43:16.491Z,4.08
2023-01-25T12:46:12.033Z,3.90
2023-01-25T12:49:06.972Z,3.64
2023-01-25T12:51:56.561Z,3.15
2023-01-25T12:54:47.269Z,3.84
2023-01-25T12:57:42.816Z,4.50
2023-01-25T13:00:37.618Z,4.35
2023-01-25T13:03:31.485Z,5.19
2023-01-25T13:06:23.418Z,5.11
2023-01-25T13:09:21.211Z,4.89
2023-01-25T13:12:12.644Z,4.92
2023-01-25T13:14:59.472Z,4.20
2023-01-25T13:17:46.251Z,3.92
2023-01-25T13:20:50.606Z,3.55
2023-01-25T13:23:43.814Z,3.16
2023-01-25T13:26:48.400Z,4.07
2023-01-25T13:29:56.716Z,4.49
2023-01-25T13:33:07.059Z,3.78
2023-01-25T13:35:55.316Z,4.45
2023-01-25T13:38:42.002Z,5.26
2023-01-25T13:41:28.723Z,5.30
2023-01-25T13:44:28.290Z,5.89
2023-01-25T13:47:19.075Z,6.41
2023-01-25T13:50:18.698Z,5.83
2023-01-25T13:53:18.698Z,4.72
2023-01-25T13:56:06.279Z,3.92
2023-01-25T13:58:53.048Z,3.43
2023-01-25T14:01:39.592Z,3.80
2023-01-25T14:04:26.531Z,3.95
2023-01-25T14:07:17.856Z,3.69
2023-01-25T14:10:11.566Z,3.17
2023-01-25T14:13:01.265Z,3.62
2023-01-25T14:15:56.112Z,4.57
2023-01-25T14:18:44.818Z,3.93
2023-01-25T14:21:31.377Z,4.97
2023-01-25T14:24:19.144Z,4.32
2023-01-25T14:27:08.388Z,4.78
2023-01-25T14:29:55.399Z,4.10
2023-01-25T14:32:42.709Z,4.26
2023-01-25T14:36:00.100Z,4.42
2023-01-25T14:38:48.829Z,3.79
2023-01-25T14:41:40.155Z,5.55
2023-01-25T14:44:31.426Z,5.08
2023-01-25T14:47:23.685Z,3.81
2023-01-25T14:50:32.559Z,4.68
2023-01-25T14:53:24.376Z,2.94
2023-01-25T14:56:36.555Z,3.01
2023-01-25T14:59:28.646Z,3.70
2023-01-25T15:02:24.641Z,3.35
2023-01-25T15:05:21.128Z,3.03
2023-01-25T15:08:27.949Z,3.44
2023-01-25T15:11:38.809Z,2.91
2023-01-25T15:14:27.415Z,2.25
2023-01-25T15:17:44.145Z,2.99
2023-01-25T15:20:34.709Z,1.88
2023-01-25T15:23:26.538Z,1.36
2023-01-25T15:26:16.644Z,1.80
2023-01-25T15:29:09.131Z,2.35
2023-01-25T15:31:56.976Z,2.07
2023-01-25T15:34:45.489Z,2.09
2023-01-25T15:37:32.185Z,1.36
2023-01-25T15:40:19.086Z,2.70
2023-01-25T15:43:05.502Z,2.06
2023-01-25T15:45:52.378Z,3.22
2023-01-25T15:48:42.711Z,3.12
2023-01-25T15:51:35.333Z,3.65
2023-01-25T15:54:22.765Z,4.61
2023-01-25T15:57:19.061Z,4.88
2023-01-25T16:00:06.929Z,5.32
2023-01-25T16:02:53.733Z,5.03
2023-01-25T16:05:40.444Z,3.52
2023-01-25T16:08:28.453Z,3.00
2023-01-25T16:11:14.860Z,1.93
2023-01-25T16:14:01.334Z,2.21
2023-01-25T16:16:50.645Z,1.91
2023-01-25T16:19:37.898Z,1.99
2023-01-25T16:22:24.629Z,1.77
2023-01-25T16:25:12.998Z,2.04
2023-01-25T16:27:59.725Z,2.77
2023-01-25T16:30:46.559Z,2.88
2023-01-25T16:33:32.733Z,2.72
2023-01-25T16:36:21.976Z,3.07
2023-01-25T16:39:10.723Z,3.01
2023-01-25T16:41:59.078Z,3.09
2023-01-25T16:44:48.467Z,2.96
2023-01-25T16:47:35.064Z,3.22
2023-01-25T16:50:23.641Z,3.70
2023-01-25T16:53:10.578Z,4.47
2023-01-25T16:55:59.556Z,4.58
2023-01-25T16:58:48.754Z,4.39
2023-01-25T17:01:35.498Z,4.50
2023-01-25T17:04:22.071Z,5.17
2023-01-25T17:07:10.412Z,5.93
2023-01-25T17:09:56.740Z,5.79
2023-01-25T17:12:45.411Z,4.79
2023-01-25T17:15:34.789Z,5.35
2023-01-25T17:18:21.616Z,4.29
2023-01-25T17:21:08.365Z,3.55
2023-01-25T17:23:57.673Z,3.42
2023-01-25T17:26:44.837Z,3.38
2023-01-25T17:29:31.637Z,3.30
2023-01-25T17:32:19.560Z,2.57
2023-01-25T17:35:07.226Z,2.15
2023-01-25T17:37:54.850Z,1.95
2023-01-25T17:40:41.622Z,1.89
2023-01-25T17:43:28.351Z,2.12
2023-01-25T17:46:18.077Z,2.00
2023-01-25T17:49:07.939Z,2.03
2023-01-25T17:51:54.572Z,1.69
2023-01-25T17:54:41.245Z,1.81
2023-01-25T17:57:31.361Z,1.63
2023-01-25T18:00:19.250Z,2.12
2023-01-25T18:03:05.871Z,2.01
2023-01-25T18:05:59.304Z,1.52
2023-01-25T18:08:47.832Z,1.85
2023-01-25T18:11:36.340Z,2.22
2023-01-25T18:14:22.802Z,2.55
2023-01-25T18:17:09.218Z,2.93
2023-01-25T18:19:55.684Z,2.39
2023-01-25T18:22:43.768Z,2.32
2023-01-25T18:25:34.353Z,2.44
2023-01-25T18:28:21.069Z,2.29
2023-01-25T18:31:08.657Z,1.28
2023-01-25T18:33:55.415Z,1.52
2023-01-25T18:36:41.911Z,2.00
2023-01-25T18:39:29.779Z,2.67
2023-01-25T18:42:16.712Z,2.33
2023-01-25T18:45:03.437Z,2.50
2023-01-25T18:47:49.877Z,2.20
2023-01-25T18:50:37.095Z,2.76
2023-01-25T18:53:24.030Z,2.51
2023-01-25T18:56:14.743Z,2.39
2023-01-25T18:59:01.262Z,2.21
2023-01-25T19:01:48.223Z,2.31
2023-01-25T19:04:35.065Z,2.79
2023-01-25T19:07:21.580Z,2.38
2023-01-25T19:10:10.269Z,2.65
2023-01-25T19:12:58.473Z,2.03
2023-01-25T19:15:45.131Z,2.81
2023-01-25T19:18:33.046Z,2.85
2023-01-25T19:21:21.592Z,2.81
2023-01-25T19:24:12.190Z,2.93
2023-01-25T19:26:58.943Z,2.88
2023-01-25T19:29:46.893Z,3.12
2023-01-25T19:32:33.566Z,3.94
2023-01-25T19:35:20.243Z,2.77
2023-01-25T19:38:07.430Z,2.33
2023-01-25T19:40:54.248Z,2.22
2023-01-25T19:43:41.941Z,2.53
2023-01-25T19:46:32.473Z,3.19
2023-01-25T19:49:18.818Z,4.15
2023-01-25T19:52:05.394Z,4.12
2023-01-25T19:54:51.873Z,3.34
2023-01-25T19:57:38.509Z,3.15
2023-01-25T20:00:25.732Z,3.02
2023-01-25T20:03:16.646Z,3.26
2023-01-25T20:06:05.069Z,3.27
2023-01-25T20:08:52.505Z,3.36
2023-01-25T20:11:39.719Z,3.14
2023-01-25T20:14:26.431Z,3.17
2023-01-25T20:17:13.088Z,2.83
2023-01-25T20:20:00.978Z,2.72
2023-01-25T20:22:49.491Z,2.70
2023-01-25T20:25:36.666Z,2.70
2023-01-25T20:28:23.238Z,2.31
2023-01-25T20:31:20.328Z,2.92
2023-01-25T20:34:10.834Z,2.95
2023-01-25T20:37:00.260Z,3.03
2023-01-25T20:39:47.127Z,2.88
2023-01-25T20:42:33.736Z,2.45
2023-01-25T20:45:20.280Z,3.26
2023-01-25T20:48:07.411Z,3.40
2023-01-25T20:50:54.406Z,3.58
2023-01-25T20:53:42.885Z,3.24
2023-01-25T20:56:29.715Z,3.79
2023-01-25T20:59:19.119Z,2.74
2023-01-25T21:02:06.054Z,2.59
2023-01-25T21:04:52.517Z,1.97
2023-01-25T21:07:39.000Z,2.06
2023-01-25T21:10:27.763Z,2.16
2023-01-25T21:13:14.487Z,1.87
2023-01-25T21:16:02.254Z,2.28
2023-01-25T21:18:51.189Z,2.04
2023-01-25T21:21:38.616Z,2.29
2023-01-25T21:24:25.241Z,2.77
2023-01-25T21:27:13.070Z,2.39
2023-01-25T21:30:00.096Z,2.64
2023-01-25T21:32:46.961Z,2.76
2023-01-25T21:35:33.767Z,2.45
2023-01-25T21:38:20.801Z,2.48
2023-01-25T21:41:10.002Z,2.77
2023-01-25T21:44:17.624Z,2.96
2023-01-25T21:50:31.308Z,3.49
2023-01-25T21:53:17.853Z,4.34
2023-01-25T21:56:04.637Z,5.04
2023-01-25T21:58:52.134Z,5.77
2023-01-25T22:01:40.913Z,5.13
2023-01-25T22:04:27.667Z,3.96
2023-01-25T22:07:14.435Z,5.00
2023-01-25T22:10:01.066Z,4.26
2023-01-25T22:12:50.593Z,4.66
2023-01-25T22:15:37.436Z,4.10
2023-01-25T22:18:25.741Z,4.87
2023-01-25T22:21:16.536Z,4.80
2023-01-25T22:24:05.141Z,4.72
2023-01-25T22:26:58.834Z,5.97
2023-01-25T22:29:45.355Z,4.63
2023-01-25T22:32:32.028Z,4.07
2023-01-25T22:35:19.845Z,3.57
2023-01-25T22:38:06.454Z,2.73
2023-01-25T22:40:54.629Z,2.92
2023-01-25T22:43:42.311Z,3.29
2023-01-25T22:46:31.522Z,2.73
2023-01-25T22:49:18.069Z,3.14
2023-01-25T22:52:06.155Z,3.38
2023-01-25T22:54:52.876Z,3.28
2023-01-25T22:57:39.663Z,3.55
2023-01-25T23:03:36.059Z,3.34
2023-01-25T23:06:24.378Z,3.84
2023-01-25T23:09:12.229Z,4.10
2023-01-25T23:11:58.884Z,3.80
2023-01-25T23:14:51.510Z,4.44
2023-01-25T23:17:56.160Z,4.69
2023-01-25T23:20:42.652Z,5.27
2023-01-25T23:23:29.933Z,5.53
2023-01-25T23:26:17.949Z,3.85
2023-01-25T23:29:07.125Z,4.39
2023-01-25T23:31:54.100Z,3.99
2023-01-25T23:34:41.486Z,4.51
2023-01-25T23:37:27.870Z,4.24
2023-01-25T23:40:15.333Z,4.63
2023-01-25T23:43:03.011Z,4.80
2023-01-25T23:45:50.175Z,4.88
2023-01-25T23:48:36.835Z,5.08
2023-01-25T23:51:23.572Z,5.54
2023-01-25T23:54:09.700Z,5.24
2023-01-25T23:56:56.312Z,4.72
2023-01-25T23:59:44.200Z,4.51
